Time;durP1;ratioP1;P1;durP2;ratioP2;P2;SDS_P1;SDS_P2;PMS_P1;PMS_P2;Temp;Humidity;BMP_temperature;BMP_pressure;BME280_temperature;BME280_humidity;BME280_pressure;Samples;Min_cycle;Max_cycle;Signal;HPM_P1;HPM_P2
2022/07/16 00:01:22;;;;;;;2.63;2.03;;;18.30;46.80;;;;;;5052808;28;20037;-60
2022/07/16 00:01:48;;;;;;;3.92;1.98;;;18.30;46.90;;;;;;5039986;28;20064;-61
2022/07/16 00:04:13;;;;;;;5.43;2.00;;;18.20;46.70;;;;;;5041656;28;20053;-59
2022/07/16 00:06:39;;;;;;;3.05;1.65;;;18.20;47.00;;;;;;5065550;28;20047;-60
2022/07/16 00:09:05;;;;;;;2.17;1.55;;;18.10;46.90;;;;;;5042248;28;20057;-59
2022/07/16 00:11:31;;;;;;;3.72;1.92;;;18.10;46.90;;;;;;5052064;28;20025;-61
2022/07/16 00:13:56;;;;;;;3.20;1.90;;;18.10;47.10;;;;;;5042968;28;20034;-61
2022/07/16 00:16:22;;;;;;;5.45;1.98;;;18.10;47.40;;;;;;5059045;28;20025;-60
2022/07/16 00:21:32;;;;;;;2.50;1.67;;;18.00;47.40;;;;;;5045596;28;20381;-60
2022/07/16 00:23:58;;;;;;;6.95;1.90;;;18.00;47.90;;;;;;5050336;28;20029;-62
2022/07/16 00:26:23;;;;;;;2.63;1.70;;;18.00;47.10;;;;;;5045537;28;20064;-62
2022/07/16 00:28:49;;;;;;;3.15;1.75;;;17.90;47.10;;;;;;5058233;28;20048;-62
2022/07/16 00:31:15;;;;;;;3.70;1.77;;;17.90;47.20;;;;;;5044836;28;20033;-61
2022/07/16 00:33:42;;;;;;;3.40;2.00;;;17.90;47.40;;;;;;5051959;28;20065;-62
2022/07/16 00:36:08;;;;;;;4.15;1.92;;;17.80;47.80;;;;;;5048666;28;20033;-59
2022/07/16 00:38:34;;;;;;;3.35;1.65;;;17.80;48.20;;;;;;5058237;28;20543;-60
2022/07/16 00:40:59;;;;;;;3.72;1.98;;;17.70;48.30;;;;;;5041730;28;20047;-59
2022/07/16 00:43:25;;;;;;;6.75;1.77;;;17.70;48.40;;;;;;5043071;28;20073;-60
2022/07/16 00:45:51;;;;;;;6.70;1.88;;;17.70;48.50;;;;;;5046467;28;20091;-60
2022/07/16 00:48:16;;;;;;;2.55;1.75;;;17.60;48.20;;;;;;5047834;28;20075;-60
2022/07/16 00:50:42;;;;;;;3.95;1.95;;;17.60;48.00;;;;;;5053404;28;20021;-60
2022/07/16 00:53:09;;;;;;;1.77;1.33;;;17.50;47.80;;;;;;5045709;28;20025;-60
2022/07/16 00:55:36;;;;;;;5.57;1.75;;;17.50;47.80;;;;;;5045426;28;20071;-60
2022/07/16 00:58:02;;;;;;;3.00;1.80;;;17.40;47.70;;;;;;5048549;28;20026;-61
2022/07/16 01:00:28;;;;;;;1.95;1.50;;;17.40;47.80;;;;;;5043291;28;20033;-60
2022/07/16 01:02:54;;;;;;;3.28;1.63;;;17.40;48.10;;;;;;5049652;28;20033;-60
2022/07/16 01:05:20;;;;;;;3.50;1.70;;;17.30;48.30;;;;;;5043451;28;20025;-59
2022/07/16 01:07:46;;;;;;;3.67;2.03;;;17.30;48.60;;;;;;5045878;28;20033;-59
2022/07/16 01:10:18;;;;;;;3.17;1.73;;;17.20;48.70;;;;;;5047066;28;20048;-60
2022/07/16 01:12:45;;;;;;;2.72;1.95;;;17.20;48.90;;;;;;5060824;28;20029;-62
2022/07/16 01:15:12;;;;;;;3.55;1.88;;;17.20;49.10;;;;;;5049834;28;20099;-59
2022/07/16 01:17:38;;;;;;;6.05;2.38;;;17.10;49.30;;;;;;5048255;28;20029;-59
2022/07/16 01:20:06;;;;;;;2.65;1.90;;;17.10;49.20;;;;;;5048167;28;20462;-59
2022/07/16 01:22:32;;;;;;;7.00;2.00;;;17.10;49.00;;;;;;5050161;28;20025;-60
2022/07/16 01:24:58;;;;;;;3.38;1.60;;;17.10;49.00;;;;;;5049969;28;20105;-60
2022/07/16 01:27:24;;;;;;;2.42;1.63;;;17.00;48.90;;;;;;5049524;28;20041;-60
2022/07/16 01:29:50;;;;;;;3.25;1.73;;;17.00;49.10;;;;;;5052569;28;20057;-61
2022/07/16 01:32:16;;;;;;;5.43;1.95;;;17.00;49.20;;;;;;5050795;28;20026;-62
2022/07/16 01:34:41;;;;;;;6.10;1.95;;;16.90;49.20;;;;;;5046002;28;20033;-62
2022/07/16 01:37:09;;;;;;;2.55;1.73;;;16.90;49.10;;;;;;5051874;28;20056;-61
2022/07/16 01:39:38;;;;;;;2.67;1.52;;;16.90;49.20;;;;;;5048422;28;20033;-61
2022/07/16 01:42:07;;;;;;;4.40;1.77;;;16.80;49.20;;;;;;5056415;28;20025;-61
2022/07/16 01:44:35;;;;;;;2.78;1.60;;;16.70;49.20;;;;;;5045626;28;20033;-60
2022/07/16 01:47:02;;;;;;;2.03;1.63;;;16.70;49.30;;;;;;5061302;28;20044;-60
2022/07/16 01:49:36;;;;;;;2.08;1.58;;;16.60;49.10;;;;;;5044734;28;20029;-60
2022/07/16 01:52:13;;;;;;;2.17;1.73;;;16.50;49.30;;;;;;5028475;28;20034;-61
2022/07/16 01:54:47;;;;;;;4.18;1.65;;;16.50;49.50;;;;;;5044998;28;20029;-60
2022/07/16 01:57:13;;;;;;;2.65;1.75;;;16.40;49.70;;;;;;5028158;28;20030;-62
2022/07/16 01:59:39;;;;;;;3.85;1.85;;;16.40;49.30;;;;;;5044675;28;20372;-60
2022/07/16 02:02:06;;;;;;;2.58;1.80;;;16.30;49.50;;;;;;5062097;28;20029;-60
2022/07/16 02:04:32;;;;;;;5.60;1.60;;;16.30;49.70;;;;;;5045158;28;20056;-60
2022/07/16 02:06:58;;;;;;;4.82;1.67;;;16.30;49.80;;;;;;5054121;28;20033;-61
2022/07/16 02:09:24;;;;;;;4.00;1.70;;;16.20;49.90;;;;;;5050104;28;20065;-61
2022/07/16 02:11:50;;;;;;;2.33;1.77;;;16.20;50.00;;;;;;5062094;28;20032;-60
2022/07/16 02:14:16;;;;;;;4.65;1.67;;;16.20;50.30;;;;;;5035464;28;20081;-61
2022/07/16 02:16:41;;;;;;;1.88;1.50;;;16.10;50.40;;;;;;5059685;28;20656;-60
2022/07/16 02:19:07;;;;;;;3.47;1.88;;;16.10;50.40;;;;;;5049048;28;20034;-60
2022/07/16 02:21:33;;;;;;;5.30;1.83;;;16.10;50.30;;;;;;5061796;28;20040;-60
2022/07/16 02:23:59;;;;;;;2.30;1.48;;;16.00;50.30;;;;;;5047361;28;20034;-60
2022/07/16 02:26:25;;;;;;;3.17;1.92;;;16.00;50.30;;;;;;5065008;28;20033;-62
2022/07/16 02:28:50;;;;;;;3.30;1.83;;;15.90;50.20;;;;;;5045998;28;20045;-60
2022/07/16 02:31:16;;;;;;;11.13;6.65;;;15.90;50.30;;;;;;5047209;28;20025;-61
2022/07/16 02:33:42;;;;;;;10.82;6.22;;;15.80;50.60;;;;;;5052825;28;20040;-61
2022/07/16 02:36:08;;;;;;;9.48;4.95;;;15.80;51.40;;;;;;5046774;28;20030;-61
2022/07/16 02:38:34;;;;;;;4.32;3.55;;;15.80;50.90;;;;;;5053681;28;20098;-60
2022/07/16 02:41:00;;;;;;;4.68;2.30;;;15.70;50.90;;;;;;5051300;28;20036;-61
2022/07/16 02:43:26;;;;;;;3.13;1.90;;;15.70;51.00;;;;;;5044035;28;20018;-61
2022/07/16 02:45:51;;;;;;;4.57;1.98;;;15.70;50.90;;;;;;5043301;28;20037;-61
2022/07/16 02:48:17;;;;;;;7.82;1.80;;;15.70;50.90;;;;;;5056873;28;20481;-60
2022/07/16 02:50:43;;;;;;;4.18;1.90;;;15.60;51.10;;;;;;5046316;28;20032;-60
2022/07/16 02:53:09;;;;;;;4.43;1.80;;;15.60;51.10;;;;;;5050090;28;20057;-62
2022/07/16 02:55:35;;;;;;;5.07;1.80;;;15.50;51.20;;;;;;5047454;28;20022;-60
2022/07/16 02:58:01;;;;;;;4.45;2.00;;;15.50;51.10;;;;;;5052396;28;20060;-61
2022/07/16 03:00:28;;;;;;;4.40;2.25;;;15.50;51.10;;;;;;5045206;28;20033;-60
2022/07/16 03:02:54;;;;;;;7.20;1.90;;;15.40;51.30;;;;;;5055326;28;20092;-61
2022/07/16 03:05:20;;;;;;;2.20;1.80;;;15.40;51.40;;;;;;5044670;28;20408;-59
2022/07/16 03:07:46;;;;;;;5.88;1.70;;;15.40;51.50;;;;;;5056490;28;20022;-59
2022/07/16 03:10:12;;;;;;;3.80;1.88;;;15.30;51.60;;;;;;5050688;28;20113;-59
2022/07/16 03:12:39;;;;;;;5.25;2.05;;;15.30;51.70;;;;;;5049522;28;20520;-59
2022/07/16 03:15:06;;;;;;;6.18;1.70;;;15.30;51.70;;;;;;5035062;28;20042;-60
2022/07/16 03:17:32;;;;;;;3.83;1.80;;;15.30;51.90;;;;;;5044475;28;20017;-60
2022/07/16 03:19:57;;;;;;;2.28;1.70;;;15.20;52.00;;;;;;5054219;28;20435;-60
2022/07/16 03:22:24;;;;;;;5.28;2.00;;;15.20;51.80;;;;;;5032806;28;20033;-61
2022/07/16 03:24:49;;;;;;;3.60;1.92;;;15.20;52.00;;;;;;5058200;28;20036;-59
2022/07/16 03:27:15;;;;;;;7.80;1.73;;;15.10;51.90;;;;;;5044736;28;20029;-59
2022/07/16 03:29:41;;;;;;;2.03;1.40;;;15.10;52.10;;;;;;5042524;28;20050;-59
2022/07/16 03:32:07;;;;;;;3.72;1.85;;;15.10;52.10;;;;;;5048167;28;20037;-60
2022/07/16 03:34:33;;;;;;;3.33;1.75;;;15.00;52.20;;;;;;5048351;28;20021;-61
2022/07/16 03:36:59;;;;;;;1.92;1.58;;;15.00;52.40;;;;;;5054217;28;20039;-60
2022/07/16 03:39:25;;;;;;;3.20;1.90;;;15.00;52.20;;;;;;5036708;28;20033;-59
2022/07/16 03:41:50;;;;;;;4.75;1.90;;;15.00;52.30;;;;;;5040695;28;20022;-60
2022/07/16 03:44:16;;;;;;;2.47;1.70;;;14.90;52.90;;;;;;5045723;28;20057;-60
2022/07/16 03:46:42;;;;;;;3.40;2.10;;;14.90;52.50;;;;;;5054746;28;20053;-60
2022/07/16 03:49:08;;;;;;;7.60;2.13;;;14.90;52.60;;;;;;5047802;28;20055;-61
2022/07/16 03:51:34;;;;;;;6.00;1.90;;;14.80;52.80;;;;;;5049765;28;20037;-62
2022/07/16 03:54:00;;;;;;;2.47;1.80;;;14.80;52.90;;;;;;5040726;28;20030;-62
2022/07/16 03:56:26;;;;;;;3.97;1.75;;;14.80;53.60;;;;;;5036865;28;20029;-60
2022/07/16 03:58:52;;;;;;;4.40;2.15;;;14.80;53.10;;;;;;5063333;28;20025;-61
2022/07/16 04:01:18;;;;;;;1.73;1.58;;;14.80;53.20;;;;;;5056467;28;20451;-62
2022/07/16 04:03:44;;;;;;;3.05;1.98;;;14.80;53.10;;;;;;5057060;28;20025;-61
2022/07/16 04:06:09;;;;;;;4.00;1.80;;;14.80;53.20;;;;;;5050661;28;20030;-62
2022/07/16 04:08:35;;;;;;;2.92;1.88;;;14.80;53.20;;;;;;5050970;28;20038;-61
2022/07/16 04:11:02;;;;;;;4.43;1.63;;;14.80;53.40;;;;;;5043251;28;20041;-60
2022/07/16 04:13:28;;;;;;;4.15;2.03;;;14.80;53.50;;;;;;5037615;28;20090;-60
2022/07/16 04:15:54;;;;;;;2.30;1.73;;;14.80;53.50;;;;;;5044761;28;20318;-62
2022/07/16 04:18:20;;;;;;;3.70;1.75;;;14.80;53.50;;;;;;5042337;28;20025;-60
2022/07/16 04:20:46;;;;;;;2.50;1.98;;;14.80;53.70;;;;;;5039267;28;20021;-62
2022/07/16 04:23:12;;;;;;;2.50;1.70;;;14.80;53.70;;;;;;5046194;28;20026;-60
2022/07/16 04:25:38;;;;;;;3.20;1.88;;;14.90;53.80;;;;;;5045546;28;20044;-61
2022/07/16 04:28:04;;;;;;;4.05;1.90;;;15.00;53.90;;;;;;5041881;28;20026;-59
2022/07/16 04:30:30;;;;;;;7.43;1.88;;;15.00;53.90;;;;;;5049404;28;20129;-61
2022/07/16 04:32:55;;;;;;;2.08;1.83;;;15.10;54.10;;;;;;5042868;28;20507;-59
2022/07/16 04:35:22;;;;;;;2.13;1.60;;;15.20;54.10;;;;;;5048925;28;20025;-62
2022/07/16 04:37:48;;;;;;;2.90;1.75;;;15.20;54.00;;;;;;5044417;28;20119;-60
2022/07/16 04:40:14;;;;;;;3.50;1.55;;;15.30;54.00;;;;;;5052139;28;20068;-58
2022/07/16 04:42:41;;;;;;;4.43;1.88;;;15.40;54.00;;;;;;5046554;28;20022;-59
2022/07/16 04:45:08;;;;;;;7.55;2.55;;;15.50;54.10;;;;;;5049027;28;20045;-59
2022/07/16 04:47:34;;;;;;;5.25;2.20;;;15.50;54.10;;;;;;5050884;28;20109;-60
2022/07/16 04:50:00;;;;;;;4.95;2.10;;;15.60;54.20;;;;;;5060229;28;20030;-59
2022/07/16 04:52:27;;;;;;;4.57;2.15;;;15.70;54.10;;;;;;5061479;28;20037;-60
2022/07/16 04:54:53;;;;;;;3.47;2.25;;;15.70;54.00;;;;;;5065065;28;20037;-61
2022/07/16 04:57:18;;;;;;;5.97;2.60;;;15.80;54.00;;;;;;5056898;28;20033;-60
2022/07/16 04:59:44;;;;;;;3.88;2.10;;;15.90;53.90;;;;;;5066671;28;20039;-59
2022/07/16 05:04:54;;;;;;;3.85;2.45;;;16.00;53.80;;;;;;5056614;28;20048;-60
2022/07/16 05:07:19;;;;;;;4.70;2.33;;;16.10;53.70;;;;;;5075116;28;20037;-60
2022/07/16 05:09:45;;;;;;;5.90;2.25;;;16.10;53.70;;;;;;5054924;28;20077;-63
2022/07/16 05:12:11;;;;;;;5.13;2.22;;;16.20;53.70;;;;;;5059366;28;20030;-59
2022/07/16 05:14:36;;;;;;;3.90;2.10;;;16.30;53.70;;;;;;5053122;28;20048;-60
2022/07/16 05:17:02;;;;;;;5.35;2.42;;;16.30;53.60;;;;;;5064539;28;20028;-59
2022/07/16 05:19:28;;;;;;;7.03;2.40;;;16.40;53.60;;;;;;5048605;28;20064;-59
2022/07/16 05:21:53;;;;;;;3.63;2.30;;;16.50;53.50;;;;;;5050557;28;20053;-60
2022/07/16 05:24:19;;;;;;;4.05;2.30;;;16.60;53.40;;;;;;5046942;28;20021;-60
2022/07/16 05:26:45;;;;;;;6.72;2.65;;;16.70;53.50;;;;;;5064186;28;20033;-60
2022/07/16 05:29:10;;;;;;;4.50;2.08;;;16.80;53.50;;;;;;5058774;28;20053;-59
2022/07/16 05:31:36;;;;;;;3.97;2.35;;;16.90;53.50;;;;;;5050273;28;20025;-59
2022/07/16 05:34:01;;;;;;;2.80;2.03;;;17.10;53.30;;;;;;5066725;28;20056;-60
2022/07/16 05:36:27;;;;;;;9.05;2.17;;;17.20;53.10;;;;;;5053642;28;20026;-59
2022/07/16 05:38:53;;;;;;;4.20;2.20;;;17.30;53.00;;;;;;5069719;28;20047;-60
2022/07/16 05:41:18;;;;;;;5.60;2.92;;;17.50;52.90;;;;;;5046400;28;20034;-61
2022/07/16 05:43:44;;;;;;;9.65;2.40;;;17.60;52.70;;;;;;5048970;28;20061;-59
2022/07/16 05:46:10;;;;;;;3.70;2.00;;;17.70;52.50;;;;;;5054492;28;20044;-61
2022/07/16 05:48:35;;;;;;;3.75;1.90;;;17.80;52.30;;;;;;5058849;28;20053;-60
2022/07/16 05:51:01;;;;;;;6.32;2.67;;;17.90;52.10;;;;;;5047188;28;20048;-60
2022/07/16 05:53:27;;;;;;;8.48;2.30;;;18.10;52.10;;;;;;5059305;28;20018;-61
2022/07/16 05:55:52;;;;;;;6.63;2.85;;;18.20;51.90;;;;;;5051656;28;20029;-59
2022/07/16 05:58:18;;;;;;;4.93;2.05;;;18.30;51.80;;;;;;5060689;28;20026;-60
2022/07/16 06:00:44;;;;;;;4.32;2.28;;;18.50;51.60;;;;;;5049193;28;20033;-59
2022/07/16 06:03:09;;;;;;;3.63;2.15;;;18.60;51.50;;;;;;5062113;28;20029;-59
2022/07/16 06:05:35;;;;;;;7.47;2.50;;;18.70;51.20;;;;;;5054269;28;20033;-60
2022/07/16 06:08:01;;;;;;;3.35;1.98;;;18.90;50.90;;;;;;5051856;28;20022;-59
2022/07/16 06:10:27;;;;;;;3.70;1.70;;;19.00;50.70;;;;;;5058329;28;20032;-59
2022/07/16 06:12:53;;;;;;;5.93;2.10;;;19.10;50.70;;;;;;5046474;28;20034;-59
2022/07/16 06:15:18;;;;;;;6.80;2.10;;;19.30;50.60;;;;;;5057768;28;20029;-59
2022/07/16 06:17:44;;;;;;;10.43;3.42;;;19.40;50.50;;;;;;5067276;28;20029;-59
2022/07/16 06:20:10;;;;;;;6.95;2.35;;;19.60;50.40;;;;;;5054969;28;20025;-59
2022/07/16 06:22:37;;;;;;;7.82;2.20;;;19.80;50.20;;;;;;5048558;28;20037;-60
2022/07/16 06:25:04;;;;;;;6.20;2.15;;;20.00;50.10;;;;;;5055019;28;20025;-64
2022/07/16 06:27:30;;;;;;;6.97;2.38;;;20.10;49.70;;;;;;5048267;28;20037;-60
2022/07/16 06:29:56;;;;;;;5.00;2.33;;;20.30;49.50;;;;;;5051358;28;20053;-60
2022/07/16 06:32:22;;;;;;;2.78;1.95;;;20.40;49.40;;;;;;5065350;28;20059;-60
2022/07/16 06:34:47;;;;;;;5.80;1.95;;;20.60;49.20;;;;;;5063220;28;20028;-60
2022/07/16 06:37:13;;;;;;;4.35;1.90;;;20.80;49.40;;;;;;5051831;28;20369;-60
2022/07/16 06:39:40;;;;;;;5.57;2.20;;;21.00;48.50;;;;;;5048511;28;20488;-59
2022/07/16 06:42:06;;;;;;;7.50;2.10;;;21.10;48.10;;;;;;5027744;28;20038;-60
2022/07/16 06:44:32;;;;;;;2.83;2.17;;;21.30;47.90;;;;;;5049684;28;20052;-60
2022/07/16 06:46:57;;;;;;;4.40;1.73;;;21.40;47.90;;;;;;5060989;28;20488;-61
2022/07/16 06:49:23;;;;;;;5.10;1.95;;;21.60;48.00;;;;;;5051318;28;20050;-60
2022/07/16 06:51:49;;;;;;;5.38;1.95;;;21.70;47.70;;;;;;5066792;28;20021;-59
2022/07/16 06:54:15;;;;;;;3.90;1.85;;;21.90;47.50;;;;;;5047816;28;20116;-60
2022/07/16 06:56:40;;;;;;;3.72;1.60;;;22.00;47.30;;;;;;5053235;28;20057;-60
2022/07/16 06:59:06;;;;;;;4.78;1.73;;;22.20;47.30;;;;;;5065958;28;20051;-60
2022/07/16 07:01:32;;;;;;;2.50;1.60;;;22.40;47.00;;;;;;5042226;28;20025;-60
2022/07/16 07:03:57;;;;;;;4.40;1.73;;;22.60;46.40;;;;;;5049648;28;20089;-60
2022/07/16 07:06:23;;;;;;;2.13;1.38;;;22.70;45.90;;;;;;5046033;28;21755;-59
2022/07/16 07:08:49;;;;;;;1.92;1.00;;;22.90;45.30;;;;;;5036088;28;20088;-62
2022/07/16 07:11:14;;;;;;;3.20;1.10;;;23.10;43.70;;;;;;5049497;28;20039;-60
2022/07/16 07:13:40;;;;;;;5.07;1.10;;;23.30;43.20;;;;;;5045770;28;20022;-61
2022/07/16 07:16:06;;;;;;;2.72;1.10;;;23.40;41.80;;;;;;5042443;28;20028;-60
2022/07/16 07:18:33;;;;;;;2.75;1.15;;;23.50;40.70;;;;;;5050531;28;20530;-60
2022/07/16 07:21:02;;;;;;;1.42;0.80;;;23.60;40.40;;;;;;5047062;28;20086;-59
2022/07/16 07:23:27;;;;;;;2.55;1.00;;;23.80;39.90;;;;;;5047471;28;20040;-60
2022/07/16 07:25:53;;;;;;;6.50;0.90;;;23.80;39.60;;;;;;5040259;28;20042;-58
2022/07/16 07:28:19;;;;;;;5.18;1.13;;;23.90;39.30;;;;;;5053963;28;20025;-61
2022/07/16 07:30:45;;;;;;;1.80;0.82;;;24.00;39.00;;;;;;5045523;28;20040;-61
2022/07/16 07:33:10;;;;;;;4.63;1.05;;;24.00;38.30;;;;;;5065095;28;20047;-61
2022/07/16 07:35:36;;;;;;;2.20;1.10;;;24.10;38.00;;;;;;5043032;28;20014;-60
2022/07/16 07:38:03;;;;;;;2.25;1.20;;;24.20;38.50;;;;;;5046460;28;20025;-61
2022/07/16 07:40:29;;;;;;;3.63;0.90;;;24.20;37.60;;;;;;5046005;28;20052;-60
2022/07/16 07:42:54;;;;;;;3.97;1.17;;;24.30;37.90;;;;;;5049836;28;20025;-61
2022/07/16 07:45:21;;;;;;;2.85;1.00;;;24.40;37.30;;;;;;5042130;28;20519;-61
2022/07/16 07:47:47;;;;;;;2.67;1.20;;;24.40;37.50;;;;;;5065428;28;20039;-60
2022/07/16 07:50:13;;;;;;;7.13;0.98;;;24.50;37.50;;;;;;5044463;28;20089;-60
2022/07/16 07:52:39;;;;;;;4.45;1.30;;;24.60;37.20;;;;;;5043646;28;20025;-62
2022/07/16 07:55:06;;;;;;;5.28;1.88;;;24.60;36.00;;;;;;5046235;28;20030;-62
2022/07/16 07:57:32;;;;;;;6.03;1.23;;;24.70;36.60;;;;;;5050311;28;20530;-60
2022/07/16 07:59:58;;;;;;;1.67;1.00;;;24.70;36.30;;;;;;5040977;28;20026;-60
2022/07/16 08:02:23;;;;;;;3.42;1.30;;;24.70;36.20;;;;;;5041779;28;20029;-60
2022/07/16 08:04:49;;;;;;;3.60;1.00;;;24.80;36.00;;;;;;5045582;28;20052;-60
2022/07/16 08:07:15;;;;;;;1.63;1.00;;;24.80;35.40;;;;;;5051695;28;20060;-60
2022/07/16 08:09:40;;;;;;;2.42;1.20;;;24.80;35.50;;;;;;5046538;28;20022;-59
2022/07/16 08:12:06;;;;;;;2.90;1.20;;;24.90;35.00;;;;;;5043531;28;20033;-60
2022/07/16 08:14:32;;;;;;;2.15;0.90;;;24.90;35.20;;;;;;5045661;28;20028;-58
2022/07/16 08:16:58;;;;;;;1.45;0.90;;;25.00;35.10;;;;;;5043536;28;20041;-60
2022/07/16 08:19:24;;;;;;;3.28;1.10;;;25.00;35.20;;;;;;5046270;28;20032;-61
2022/07/16 08:21:51;;;;;;;2.83;1.20;;;25.10;35.10;;;;;;5041706;28;20546;-60
2022/07/16 08:27:01;;;;;;;5.03;1.20;;;25.30;34.70;;;;;;5044446;28;20140;-61
2022/07/16 08:29:27;;;;;;;2.03;1.10;;;25.40;34.40;;;;;;5046058;28;20057;-59
2022/07/16 08:31:52;;;;;;;3.75;1.00;;;25.50;34.40;;;;;;5041512;28;20029;-61
2022/07/16 08:34:22;;;;;;;9.40;1.13;;;25.60;34.30;;;;;;5049175;28;20037;-60
2022/07/16 08:36:49;;;;;;;3.38;1.05;;;25.70;33.70;;;;;;5047090;28;20026;-59
2022/07/16 08:39:15;;;;;;;3.28;1.42;;;25.70;33.70;;;;;;5046948;28;20071;-60
2022/07/16 08:41:42;;;;;;;2.88;1.27;;;25.80;34.00;;;;;;5048606;28;20029;-60
2022/07/16 08:44:09;;;;;;;2.60;1.20;;;25.80;34.10;;;;;;5053163;28;20089;-60
2022/07/16 08:46:35;;;;;;;2.58;1.35;;;25.90;34.00;;;;;;5047570;28;20096;-60
2022/07/16 08:49:01;;;;;;;4.07;1.10;;;26.00;32.70;;;;;;5050526;28;20022;-60
2022/07/16 08:51:35;;;;;;;2.40;1.10;;;26.10;33.10;;;;;;5043400;28;20029;-60
2022/07/16 08:54:13;;;;;;;5.38;1.38;;;26.10;31.80;;;;;;5052048;28;20033;-62
2022/07/16 08:56:42;;;;;;;7.32;1.98;;;26.10;31.80;;;;;;5048768;28;20082;-60
2022/07/16 08:59:08;;;;;;;2.45;1.10;;;26.10;32.40;;;;;;5045908;28;20030;-60
2022/07/16 09:01:34;;;;;;;3.47;1.38;;;26.10;33.00;;;;;;5049764;28;20041;-60
2022/07/16 09:04:01;;;;;;;2.17;1.30;;;26.10;32.70;;;;;;5047044;28;20056;-60
2022/07/16 09:06:28;;;;;;;3.28;1.05;;;26.20;32.50;;;;;;5051543;28;20068;-61
2022/07/16 09:08:54;;;;;;;2.38;1.10;;;26.20;32.90;;;;;;5049908;28;20032;-63
2022/07/16 09:11:27;;;;;;;2.03;1.15;;;26.20;32.20;;;;;;5051901;28;20053;-59
2022/07/16 09:14:15;;;;;;;5.20;1.13;;;26.30;32.40;;;;;;5046012;28;20040;-59
2022/07/16 09:16:46;;;;;;;4.88;1.10;;;26.30;32.40;;;;;;5049264;28;20024;-61
2022/07/16 09:19:18;;;;;;;5.25;1.10;;;26.40;32.00;;;;;;5049491;28;20048;-60
2022/07/16 09:22:11;;;;;;;2.17;1.23;;;26.50;32.20;;;;;;5044703;28;20041;-62
2022/07/16 09:24:56;;;;;;;4.90;1.08;;;26.50;31.50;;;;;;5052459;28;20025;-60
2022/07/16 09:27:24;;;;;;;7.82;1.95;;;26.50;30.90;;;;;;5049073;28;20124;-61
2022/07/16 09:29:53;;;;;;;2.10;1.27;;;26.50;31.80;;;;;;5047453;28;20084;-61
2022/07/16 09:32:36;;;;;;;2.03;1.08;;;26.40;31.80;;;;;;5051932;28;20037;-62
2022/07/16 09:35:08;;;;;;;4.70;1.33;;;26.50;31.40;;;;;;5037711;28;20040;-61
2022/07/16 09:37:49;;;;;;;3.38;1.20;;;26.50;31.80;;;;;;5029255;28;20033;-61
2022/07/16 09:40:39;;;;;;;4.63;1.10;;;26.60;32.10;;;;;;5053746;28;20502;-61
2022/07/16 09:43:25;;;;;;;2.50;0.98;;;26.70;31.60;;;;;;5047704;28;20107;-61
2022/07/16 09:46:02;;;;;;;2.65;1.10;;;26.80;30.00;;;;;;5043803;28;20415;-59
2022/07/16 09:48:35;;;;;;;2.42;1.00;;;26.80;31.20;;;;;;5028868;28;20060;-62
2022/07/16 09:51:22;;;;;;;1.85;1.10;;;26.90;32.00;;;;;;5056534;28;20027;-60
2022/07/16 09:53:50;;;;;;;4.72;1.08;;;26.90;32.20;;;;;;5067154;28;20047;-59
2022/07/16 09:56:28;;;;;;;5.10;1.38;;;27.00;31.40;;;;;;5039615;28;20416;-59
2022/07/16 09:58:56;;;;;;;2.72;1.00;;;27.10;30.50;;;;;;5067461;28;20033;-59
2022/07/16 10:01:22;;;;;;;4.88;1.30;;;27.10;31.70;;;;;;5046858;28;20026;-60
2022/07/16 10:03:50;;;;;;;3.08;1.35;;;27.20;31.60;;;;;;5047870;28;20111;-60
2022/07/16 10:06:16;;;;;;;3.33;1.35;;;27.20;31.70;;;;;;5066543;28;20041;-60
2022/07/16 10:08:43;;;;;;;2.78;1.02;;;27.20;30.60;;;;;;5047584;28;20029;-60
2022/07/16 10:11:10;;;;;;;4.85;1.25;;;27.20;30.90;;;;;;5056145;28;20034;-60
2022/07/16 10:13:40;;;;;;;4.15;1.30;;;27.20;31.30;;;;;;5059091;28;20026;-61
2022/07/16 10:16:06;;;;;;;5.07;1.20;;;27.30;31.20;;;;;;5036485;28;20044;-61
2022/07/16 10:18:41;;;;;;;7.90;1.27;;;27.30;31.30;;;;;;5067575;28;20033;-62
2022/07/16 10:21:17;;;;;;;3.10;1.25;;;27.40;31.50;;;;;;5036723;28;20025;-59
2022/07/16 10:23:50;;;;;;;3.38;1.45;;;27.40;31.40;;;;;;5061782;28;20055;-60
2022/07/16 10:26:18;;;;;;;5.35;1.42;;;27.50;30.90;;;;;;5044632;28;20096;-60
2022/07/16 10:28:46;;;;;;;4.43;1.48;;;27.60;31.10;;;;;;5063217;28;20075;-60
2022/07/16 10:31:33;;;;;;;3.33;1.30;;;27.60;30.20;;;;;;5056580;28;20029;-60
2022/07/16 10:34:14;;;;;;;2.30;1.20;;;27.50;30.00;;;;;;5048658;28;20388;-60
2022/07/16 10:36:53;;;;;;;3.05;1.30;;;27.50;31.50;;;;;;5050208;28;20030;-60
2022/07/16 10:39:21;;;;;;;2.03;1.23;;;27.50;31.10;;;;;;5027966;28;20125;-59
2022/07/16 10:41:52;;;;;;;3.50;1.75;;;27.60;30.70;;;;;;5035036;28;20048;-61
2022/07/16 10:44:20;;;;;;;6.15;1.33;;;27.60;30.50;;;;;;5027464;28;20026;-61
2022/07/16 10:46:59;;;;;;;5.15;1.15;;;27.60;31.50;;;;;;5035592;28;20046;-61
2022/07/16 10:49:26;;;;;;;2.53;1.20;;;27.70;31.10;;;;;;5027526;28;20142;-61
2022/07/16 10:52:08;;;;;;;2.50;1.35;;;27.80;30.60;;;;;;5050784;28;20030;-60
2022/07/16 10:54:37;;;;;;;4.22;1.48;;;27.90;30.00;;;;;;5037828;28;20037;-60
2022/07/16 10:57:33;;;;;;;3.75;1.45;;;27.90;30.20;;;;;;5045222;28;20498;-61
2022/07/16 10:59:59;;;;;;;4.45;1.45;;;27.90;30.10;;;;;;5038184;28;20024;-60
2022/07/16 11:02:25;;;;;;;2.78;1.15;;;27.90;30.00;;;;;;5048142;28;20093;-60
2022/07/16 11:04:53;;;;;;;5.60;1.38;;;27.90;30.40;;;;;;5054725;28;20056;-61
2022/07/16 11:07:21;;;;;;;4.35;1.50;;;27.90;30.20;;;;;;5046854;28;20038;-61
2022/07/16 11:09:53;;;;;;;1.73;1.10;;;28.00;29.90;;;;;;5048835;28;20033;-61
2022/07/16 11:12:27;;;;;;;2.53;1.23;;;28.00;30.10;;;;;;5057707;28;20029;-61
2022/07/16 11:14:55;;;;;;;5.07;1.15;;;28.10;30.70;;;;;;5042941;28;20411;-60
2022/07/16 11:17:29;;;;;;;3.10;1.45;;;28.20;30.40;;;;;;5057568;28;20044;-61
2022/07/16 11:19:57;;;;;;;3.65;1.25;;;28.30;30.90;;;;;;5046003;28;20029;-60
2022/07/16 11:22:28;;;;;;;4.10;1.10;;;28.40;30.90;;;;;;5044325;28;20025;-61
2022/07/16 11:24:59;;;;;;;3.40;1.00;;;28.50;30.30;;;;;;5042283;28;20035;-60
2022/07/16 11:27:32;;;;;;;2.10;1.15;;;28.60;30.90;;;;;;5056056;28;20034;-61
2022/07/16 11:30:01;;;;;;;2.17;0.90;;;28.70;29.70;;;;;;5027048;28;20058;-62
2022/07/16 11:32:27;;;;;;;3.65;1.20;;;28.80;29.70;;;;;;5045811;28;20159;-60
2022/07/16 11:34:53;;;;;;;3.00;1.52;;;28.90;29.70;;;;;;5066244;28;20510;-62
2022/07/16 11:37:20;;;;;;;2.65;1.17;;;28.90;28.90;;;;;;5045462;28;20021;-61
2022/07/16 11:39:46;;;;;;;6.07;1.67;;;29.00;29.00;;;;;;5066031;28;20029;-62
2022/07/16 11:42:12;;;;;;;1.67;0.93;;;28.90;29.20;;;;;;5053897;28;20027;-61
2022/07/16 11:44:39;;;;;;;3.03;1.23;;;28.90;29.90;;;;;;5065905;28;20090;-61
2022/07/16 11:47:10;;;;;;;2.90;1.23;;;28.90;29.80;;;;;;5030488;28;20041;-61
2022/07/16 11:49:38;;;;;;;5.40;1.60;;;28.90;29.90;;;;;;5026853;28;20030;-62
2022/07/16 11:52:06;;;;;;;1.90;1.20;;;28.90;28.60;;;;;;5057201;28;20037;-61
2022/07/16 11:54:42;;;;;;;1.80;0.90;;;28.80;28.50;;;;;;5065273;28;20450;-61
2022/07/16 11:57:11;;;;;;;1.52;0.80;;;28.70;28.20;;;;;;5045527;28;20089;-61
2022/07/16 11:59:52;;;;;;;1.95;1.05;;;28.70;29.70;;;;;;5065624;28;20480;-61
2022/07/16 12:02:24;;;;;;;1.63;0.98;;;28.80;28.70;;;;;;5057766;28;20064;-61
2022/07/16 12:05:00;;;;;;;7.30;1.27;;;28.90;29.20;;;;;;5060213;28;20032;-60
2022/07/16 12:07:25;;;;;;;1.38;0.90;;;29.00;28.50;;;;;;5042400;28;20105;-61
2022/07/16 12:09:56;;;;;;;3.03;1.02;;;29.00;28.10;;;;;;5065350;28;20037;-61
2022/07/16 12:12:27;;;;;;;2.17;0.90;;;29.10;28.60;;;;;;5056876;28;20036;-62
2022/07/16 12:14:59;;;;;;;4.47;1.00;;;29.10;28.20;;;;;;5027517;28;20038;-60
2022/07/16 12:17:28;;;;;;;2.42;0.95;;;29.20;28.90;;;;;;5042165;28;20082;-62
2022/07/16 12:20:10;;;;;;;1.27;1.00;;;29.30;27.80;;;;;;5058041;28;20096;-61
2022/07/16 12:22:55;;;;;;;2.88;0.98;;;29.30;27.70;;;;;;5058156;28;20040;-62
2022/07/16 12:25:36;;;;;;;4.30;0.95;;;29.20;27.10;;;;;;5044585;28;20026;-58
2022/07/16 12:28:16;;;;;;;2.45;1.00;;;29.20;27.60;;;;;;5044945;28;20116;-60
2022/07/16 12:30:51;;;;;;;5.13;0.95;;;29.10;27.30;;;;;;5038758;28;20052;-59
2022/07/16 12:33:22;;;;;;;1.90;0.90;;;29.10;27.10;;;;;;5047891;28;20025;-59
2022/07/16 12:35:48;;;;;;;1.42;0.88;;;29.30;27.40;;;;;;5031150;28;20068;-59
2022/07/16 12:38:39;;;;;;;1.50;0.90;;;29.10;27.40;;;;;;5064805;28;20021;-59
2022/07/16 12:41:07;;;;;;;4.53;1.13;;;29.20;27.60;;;;;;5046663;28;20021;-60
2022/07/16 12:43:33;;;;;;;9.57;1.25;;;29.30;27.30;;;;;;5036368;28;20025;-60
2022/07/16 12:46:00;;;;;;;5.68;1.27;;;29.40;27.30;;;;;;5042557;28;20037;-60
2022/07/16 12:48:28;;;;;;;3.13;1.00;;;29.30;27.70;;;;;;5053897;28;20056;-59
2022/07/16 12:50:54;;;;;;;4.95;1.08;;;29.40;27.20;;;;;;5060977;28;20427;-61
2022/07/16 12:53:20;;;;;;;2.65;1.10;;;29.50;27.00;;;;;;5052678;28;20124;-59
2022/07/16 12:58:48;;;;;;;2.15;1.10;;;29.70;26.70;;;;;;5039163;28;20040;-60